Time;durP1;ratioP1;P1;durP2;ratioP2;P2;SDS_P1;SDS_P2;PMS_P1;PMS_P2;Temp;Humidity;BMP_temperature;BMP_pressure;BME280_temperature;BME280_humidity;BME280_pressure;Samples;Min_cycle;Max_cycle;Signal;HPM_P1;HPM_P2
2021/07/05 00:02:30;;;;;;;8.68;6.78;;;25.10;51.80;;;;;;6183516;28;80371;-67
2021/07/05 00:05:31;;;;;;;10.15;6.55;;;25.10;51.40;;;;;;6180247;28;81474;-69
2021/07/05 00:08:31;;;;;;;8.18;6.75;;;25.10;51.70;;;;;;6180411;28;80995;-69
2021/07/05 00:11:32;;;;;;;11.13;7.75;;;25.10;51.30;;;;;;6178265;28;80259;-68
2021/07/05 00:14:32;;;;;;;9.88;7.22;;;25.00;51.40;;;;;;6175524;28;80578;-69
2021/07/05 00:17:33;;;;;;;10.38;7.57;;;25.00;51.50;;;;;;6174476;28;80471;-70
2021/07/05 00:20:34;;;;;;;12.48;7.57;;;24.90;51.70;;;;;;6175403;28;81671;-69
2021/07/05 00:23:34;;;;;;;14.77;7.78;;;24.80;51.50;;;;;;6180558;28;81331;-69
2021/07/05 00:26:35;;;;;;;11.38;7.63;;;24.80;51.70;;;;;;6179978;28;81099;-69
2021/07/05 00:29:35;;;;;;;13.45;8.57;;;24.80;51.30;;;;;;6179290;28;80432;-66
2021/07/05 00:32:36;;;;;;;10.77;7.45;;;24.60;51.10;;;;;;6174434;28;80438;-69
2021/07/05 00:35:36;;;;;;;10.75;7.43;;;24.60;51.10;;;;;;6178317;28;80657;-70
2021/07/05 00:38:37;;;;;;;12.48;8.18;;;24.60;51.30;;;;;;6182542;28;80965;-70
2021/07/05 00:41:38;;;;;;;10.38;7.50;;;24.50;51.00;;;;;;6181654;28;80874;-69
2021/07/05 00:44:38;;;;;;;9.32;7.70;;;24.50;51.30;;;;;;6174014;28;81720;-70
2021/07/05 00:47:39;;;;;;;9.75;7.10;;;24.60;51.20;;;;;;6173431;28;82846;-72
2021/07/05 00:50:39;;;;;;;10.48;8.13;;;24.60;51.60;;;;;;6168204;28;80371;-70
2021/07/05 00:53:40;;;;;;;11.20;7.60;;;24.60;51.30;;;;;;6178336;28;80650;-69
2021/07/05 00:56:41;;;;;;;11.45;7.72;;;24.70;51.30;;;;;;6179488;28;80486;-68
2021/07/05 00:59:42;;;;;;;11.82;7.57;;;24.60;51.40;;;;;;6178501;28;80730;-68
2021/07/05 01:02:43;;;;;;;8.73;6.93;;;24.60;51.40;;;;;;6179696;28;81719;-68
2021/07/05 01:05:43;;;;;;;8.15;7.07;;;24.60;51.20;;;;;;6177214;28;80783;-68
2021/07/05 01:08:44;;;;;;;10.73;7.70;;;24.60;51.10;;;;;;6179764;28;80201;-69
2021/07/05 01:11:44;;;;;;;10.68;7.32;;;24.60;51.20;;;;;;6171785;28;80903;-68
2021/07/05 01:14:45;;;;;;;9.43;7.40;;;24.70;51.10;;;;;;6178692;28;81448;-69
2021/07/05 01:17:45;;;;;;;14.38;7.75;;;24.70;51.20;;;;;;6179850;28;82129;-69
2021/07/05 01:20:46;;;;;;;15.25;8.38;;;24.70;51.20;;;;;;6173312;28;81675;-69
2021/07/05 01:23:46;;;;;;;10.43;7.97;;;24.60;51.10;;;;;;6179355;28;80651;-69
2021/07/05 01:26:47;;;;;;;8.57;7.28;;;24.50;51.20;;;;;;6181470;28;80216;-69
2021/07/05 01:29:47;;;;;;;14.73;7.15;;;24.50;51.40;;;;;;6172728;28;80702;-68
2021/07/05 01:32:48;;;;;;;10.80;6.82;;;24.50;51.30;;;;;;6179106;28;80689;-67
2021/07/05 01:35:48;;;;;;;10.55;7.35;;;24.60;51.20;;;;;;6172492;28;80973;-67
2021/07/05 01:38:51;;;;;;;8.88;7.30;;;24.60;51.10;;;;;;6176171;28;80474;-67
2021/07/05 01:41:51;;;;;;;11.40;7.88;;;24.60;51.40;;;;;;6169305;28;81349;-66
2021/07/05 01:44:52;;;;;;;9.48;7.50;;;24.60;51.00;;;;;;6183349;28;80789;-68
2021/07/05 01:47:52;;;;;;;9.27;7.25;;;24.50;51.10;;;;;;6192989;28;81780;-68
2021/07/05 01:50:53;;;;;;;10.82;6.80;;;24.50;51.00;;;;;;6177986;28;81631;-68
2021/07/05 01:53:53;;;;;;;8.50;6.53;;;24.60;51.30;;;;;;6183257;28;82108;-68
2021/07/05 01:56:54;;;;;;;8.35;6.90;;;24.60;50.90;;;;;;6177371;28;82080;-69
2021/07/05 01:59:54;;;;;;;8.82;7.28;;;24.60;50.90;;;;;;6176208;28;82019;-71
2021/07/05 02:02:55;;;;;;;8.75;6.88;;;24.60;51.60;;;;;;6183117;28;80410;-70
2021/07/05 02:05:55;;;;;;;7.22;6.35;;;24.70;51.10;;;;;;6177630;28;80636;-69
2021/07/05 02:08:56;;;;;;;8.55;6.40;;;24.60;51.00;;;;;;6184701;28;82824;-69
2021/07/05 02:11:56;;;;;;;10.77;6.75;;;24.70;51.00;;;;;;6183443;28;81793;-70
2021/07/05 02:14:57;;;;;;;10.80;7.78;;;24.60;51.10;;;;;;6182343;28;80488;-69
2021/07/05 02:17:57;;;;;;;11.95;7.28;;;24.50;51.10;;;;;;6176386;28;80776;-69
2021/07/05 02:20:58;;;;;;;9.15;7.25;;;24.50;51.40;;;;;;6178070;28;80192;-69
2021/07/05 02:23:59;;;;;;;9.63;7.35;;;24.50;51.30;;;;;;6179561;28;80393;-70
2021/07/05 02:26:59;;;;;;;12.20;6.50;;;24.50;51.40;;;;;;6184627;28;81489;-70
2021/07/05 02:30:00;;;;;;;8.60;6.03;;;24.60;51.60;;;;;;6183026;28;80622;-71
2021/07/05 02:33:00;;;;;;;8.07;5.85;;;24.60;51.10;;;;;;6182324;28;80377;-71
2021/07/05 02:36:01;;;;;;;11.43;6.45;;;24.60;51.00;;;;;;6185277;28;81659;-71
2021/07/05 02:39:01;;;;;;;11.07;6.45;;;24.60;51.00;;;;;;6179996;28;80428;-71
2021/07/05 02:42:02;;;;;;;7.47;6.07;;;24.60;50.90;;;;;;6179602;28;84494;-69
2021/07/05 02:45:02;;;;;;;7.88;5.85;;;24.60;50.80;;;;;;6178387;28;80699;-69
2021/07/05 02:48:03;;;;;;;8.65;6.72;;;24.50;50.90;;;;;;6178104;28;81007;-70
2021/07/05 02:51:04;;;;;;;11.27;6.25;;;24.50;51.50;;;;;;6178751;28;80680;-70
2021/07/05 02:54:05;;;;;;;7.03;6.07;;;24.50;50.90;;;;;;6185235;28;80581;-71
2021/07/05 02:57:06;;;;;;;7.13;5.47;;;24.40;50.80;;;;;;6184929;28;80556;-71
2021/07/05 03:00:07;;;;;;;7.82;6.05;;;24.50;51.10;;;;;;6182145;28;80484;-69
2021/07/05 03:03:07;;;;;;;13.88;5.97;;;24.60;50.90;;;;;;6173661;28;81266;-69
2021/07/05 03:06:08;;;;;;;8.60;6.07;;;24.60;50.80;;;;;;6175667;28;80917;-70
2021/07/05 03:09:08;;;;;;;7.72;6.07;;;24.60;50.70;;;;;;6179953;28;81343;-70
2021/07/05 03:12:09;;;;;;;6.65;5.93;;;24.60;50.90;;;;;;6172172;28;80355;-70
2021/07/05 03:15:09;;;;;;;6.90;5.78;;;24.60;50.70;;;;;;6183224;28;81012;-70
2021/07/05 03:18:10;;;;;;;8.52;5.75;;;24.70;51.10;;;;;;6175942;28;80534;-69
2021/07/05 03:21:10;;;;;;;7.53;6.00;;;24.70;50.60;;;;;;6175156;28;80672;-70
2021/07/05 03:24:11;;;;;;;9.75;6.47;;;24.70;50.60;;;;;;6174529;28;80544;-69
2021/07/05 03:27:12;;;;;;;14.02;6.18;;;24.70;50.50;;;;;;6179846;28;86910;-69
2021/07/05 03:30:12;;;;;;;10.43;6.28;;;24.60;50.60;;;;;;6169828;28;81588;-69
2021/07/05 03:33:13;;;;;;;11.18;7.00;;;24.60;50.60;;;;;;6183130;28;80832;-69
2021/07/05 03:36:13;;;;;;;7.13;5.70;;;24.60;50.70;;;;;;6181890;28;81659;-68
2021/07/05 03:39:14;;;;;;;7.50;5.72;;;24.60;50.50;;;;;;6183757;28;80481;-68
2021/07/05 03:42:14;;;;;;;8.77;6.18;;;24.60;50.80;;;;;;6181208;28;81881;-68
2021/07/05 03:45:15;;;;;;;8.30;6.60;;;24.70;50.80;;;;;;6172071;28;81390;-68
2021/07/05 03:48:17;;;;;;;9.13;6.47;;;24.70;50.30;;;;;;6178972;28;80664;-68
2021/07/05 03:51:17;;;;;;;8.32;6.40;;;24.70;50.40;;;;;;6182498;28;80979;-69
2021/07/05 03:54:18;;;;;;;7.63;5.93;;;24.70;50.50;;;;;;6175079;28;81342;-69
2021/07/05 03:57:25;;;;;;;11.35;7.78;;;24.80;50.30;;;;;;6175240;28;80314;-69
2021/07/05 04:00:26;;;;;;;8.98;6.18;;;24.70;50.50;;;;;;6181443;28;80369;-68
2021/07/05 04:03:26;;;;;;;7.40;6.30;;;24.70;51.00;;;;;;6182736;28;80668;-68
2021/07/05 04:06:27;;;;;;;9.15;6.00;;;24.70;50.80;;;;;;6176361;28;80337;-69
2021/07/05 04:09:28;;;;;;;10.20;6.15;;;24.60;51.00;;;;;;6169453;28;80695;-70
2021/07/05 04:12:28;;;;;;;12.02;6.47;;;24.60;51.00;;;;;;6178323;28;80316;-70
2021/07/05 04:15:29;;;;;;;11.00;6.85;;;24.60;51.10;;;;;;6179256;28;82248;-71
2021/07/05 04:18:29;;;;;;;8.30;7.00;;;24.60;51.10;;;;;;6165464;28;80232;-66
2021/07/05 04:21:30;;;;;;;13.20;6.88;;;24.60;52.00;;;;;;6171667;28;80954;-66
2021/07/05 04:24:30;;;;;;;9.40;6.88;;;24.60;50.90;;;;;;6174057;28;80309;-67
2021/07/05 04:27:31;;;;;;;9.60;7.28;;;24.60;51.10;;;;;;6172926;28;80904;-67
2021/07/05 04:30:31;;;;;;;12.52;7.80;;;24.50;50.80;;;;;;6169097;28;80519;-70
2021/07/05 04:33:32;;;;;;;11.88;7.38;;;24.50;51.00;;;;;;6175976;28;81322;-69
2021/07/05 04:36:32;;;;;;;10.38;7.47;;;24.50;51.30;;;;;;6176897;28;80573;-67
2021/07/05 04:39:33;;;;;;;10.60;7.15;;;24.50;51.40;;;;;;6175661;28;80762;-67
2021/07/05 04:42:33;;;;;;;11.43;7.57;;;24.50;51.40;;;;;;6182776;28;80537;-66
2021/07/05 04:45:34;;;;;;;13.10;7.38;;;24.50;51.50;;;;;;6168556;28;81085;-69
2021/07/05 04:48:35;;;;;;;10.18;7.05;;;24.50;51.30;;;;;;6174446;28;80740;-68
2021/07/05 04:51:35;;;;;;;10.95;7.22;;;24.50;51.10;;;;;;6170947;28;80809;-70
2021/07/05 04:54:36;;;;;;;9.80;6.38;;;24.50;51.30;;;;;;6170633;28;80727;-68
2021/07/05 04:57:36;;;;;;;15.35;7.05;;;24.60;51.50;;;;;;6171945;28;80265;-67
2021/07/05 05:00:36;;;;;;;14.40;8.50;;;24.60;51.00;;;;;;6176954;28;82105;-68
2021/07/05 05:03:37;;;;;;;14.77;8.85;;;24.60;50.90;;;;;;6177327;28;80459;-68
2021/07/05 05:06:37;;;;;;;13.43;7.85;;;24.60;51.10;;;;;;6174618;28;80884;-68
2021/07/05 05:09:38;;;;;;;12.02;7.85;;;24.70;51.20;;;;;;6179942;28;80239;-68
2021/07/05 05:12:38;;;;;;;10.18;7.07;;;24.70;51.40;;;;;;6180472;28;80578;-67
2021/07/05 05:15:39;;;;;;;9.95;7.35;;;24.80;51.20;;;;;;6175094;28;80667;-67
2021/07/05 05:18:39;;;;;;;10.93;7.38;;;24.80;51.30;;;;;;6174944;28;80279;-68
2021/07/05 05:21:40;;;;;;;12.35;7.05;;;24.90;51.30;;;;;;6185415;28;82189;-68
2021/07/05 05:24:40;;;;;;;10.88;7.18;;;24.90;51.20;;;;;;6180549;28;80814;-66
2021/07/05 05:27:41;;;;;;;12.32;6.63;;;24.90;51.60;;;;;;6183529;28;80326;-68
2021/07/05 05:30:41;;;;;;;9.23;6.32;;;24.90;51.80;;;;;;6181539;28;80795;-68
2021/07/05 05:33:42;;;;;;;8.20;6.55;;;24.90;51.70;;;;;;6174077;28;80485;-67
2021/07/05 05:36:43;;;;;;;12.10;7.10;;;24.90;51.60;;;;;;6183886;28;80934;-68
2021/07/05 05:39:43;;;;;;;9.20;6.25;;;25.00;51.80;;;;;;6174478;28;80423;-68
2021/07/05 05:42:44;;;;;;;9.07;7.00;;;25.00;51.60;;;;;;6182320;28;81342;-67
2021/07/05 05:45:44;;;;;;;10.07;6.55;;;25.00;51.60;;;;;;6184176;28;80554;-67
2021/07/05 05:48:49;;;;;;;9.93;6.68;;;25.10;51.60;;;;;;6181669;28;80295;-67
2021/07/05 05:51:49;;;;;;;15.85;7.15;;;25.10;51.70;;;;;;6184733;28;80839;-67
2021/07/05 05:54:50;;;;;;;10.18;7.43;;;25.10;51.40;;;;;;6173533;28;80190;-67
2021/07/05 05:57:50;;;;;;;11.43;7.38;;;25.10;51.80;;;;;;6179943;28;80691;-68
2021/07/05 06:00:51;;;;;;;10.18;6.53;;;25.10;51.80;;;;;;6178768;28;82972;-69
2021/07/05 06:03:52;;;;;;;10.32;6.18;;;25.10;51.90;;;;;;6179939;28;81495;-68
2021/07/05 06:06:52;;;;;;;10.35;6.25;;;25.10;51.80;;;;;;6180810;28;80810;-67
2021/07/05 06:09:53;;;;;;;13.68;6.57;;;25.10;51.70;;;;;;6176760;28;82624;-68
2021/07/05 06:12:53;;;;;;;8.43;6.47;;;25.10;51.70;;;;;;6181825;28;80457;-67
2021/07/05 06:15:54;;;;;;;10.73;6.70;;;25.10;51.80;;;;;;6176377;28;80274;-66
2021/07/05 06:18:54;;;;;;;9.07;6.60;;;25.10;51.50;;;;;;6176065;28;80495;-67
2021/07/05 06:21:55;;;;;;;10.60;6.30;;;25.10;51.10;;;;;;6174178;28;80762;-67
2021/07/05 06:24:56;;;;;;;15.70;6.63;;;25.10;51.20;;;;;;6182698;28;80935;-69
2021/07/05 06:27:56;;;;;;;10.98;6.53;;;25.20;51.30;;;;;;6168084;28;80675;-68
2021/07/05 06:30:58;;;;;;;8.10;6.50;;;25.10;50.90;;;;;;6178004;28;80585;-66
2021/07/05 06:33:58;;;;;;;9.73;6.30;;;25.10;50.70;;;;;;6173469;28;80354;-68
2021/07/05 06:36:59;;;;;;;9.27;6.78;;;25.20;50.70;;;;;;6176412;28;80449;-66
2021/07/05 06:39:59;;;;;;;10.52;7.63;;;25.20;50.90;;;;;;6182165;28;83102;-66
2021/07/05 06:43:00;;;;;;;20.75;11.20;;;25.20;51.10;;;;;;6182514;28;80908;-69
2021/07/05 06:46:00;;;;;;;20.83;12.23;;;25.20;50.90;;;;;;6179002;28;84390;-68
2021/07/05 06:49:01;;;;;;;22.88;13.25;;;25.20;51.10;;;;;;6176082;28;84352;-68
2021/07/05 06:52:01;;;;;;;22.48;12.48;;;25.20;50.90;;;;;;6178926;28;83179;-67
2021/07/05 06:55:02;;;;;;;21.77;12.65;;;25.20;51.00;;;;;;6170960;28;84002;-69
2021/07/05 06:58:03;;;;;;;15.73;9.65;;;25.20;51.20;;;;;;6177506;28;83938;-69
2021/07/05 07:01:03;;;;;;;15.48;9.88;;;25.30;51.50;;;;;;6166651;28;83551;-68
2021/07/05 07:04:04;;;;;;;13.18;9.68;;;25.20;50.70;;;;;;6179956;28;83199;-69
2021/07/05 07:07:04;;;;;;;15.43;9.07;;;25.20;50.90;;;;;;6173107;28;80437;-69
2021/07/05 07:10:05;;;;;;;17.58;8.70;;;25.20;50.80;;;;;;6173266;28;80858;-68
2021/07/05 07:13:05;;;;;;;10.60;7.38;;;25.20;50.80;;;;;;6172836;28;81126;-69
2021/07/05 07:16:06;;;;;;;9.43;7.40;;;25.20;50.50;;;;;;6179585;28;80896;-69
2021/07/05 07:19:19;;;;;;;9.07;6.95;;;25.30;50.50;;;;;;6179873;28;81409;-69
2021/07/05 07:22:19;;;;;;;11.18;7.63;;;25.30;50.40;;;;;;6178986;28;81013;-70
2021/07/05 07:25:20;;;;;;;9.88;6.97;;;25.30;50.80;;;;;;6174843;28;81540;-69
2021/07/05 07:28:20;;;;;;;233.50;68.10;;;25.30;50.50;;;;;;6174615;28;81508;-68
2021/07/05 07:31:21;;;;;;;612.67;217.50;;;25.30;50.50;;;;;;6182110;28;82926;-70
2021/07/05 07:34:22;;;;;;;531.63;171.32;;;25.30;50.50;;;;;;6175672;28;88237;-70
2021/07/05 07:37:22;;;;;;;415.55;130.65;;;25.30;50.90;;;;;;6177385;28;85647;-69
2021/07/05 07:40:45;;;;;;;287.17;96.90;;;25.30;50.60;;;;;;6177105;28;85896;-69
2021/07/05 07:43:43;;;;;;;265.17;86.07;;;25.30;50.80;;;;;;6176825;28;86731;-68
2021/07/05 07:46:44;;;;;;;264.13;83.60;;;25.30;50.50;;;;;;6178418;28;86359;-69
2021/07/05 07:49:45;;;;;;;532.67;182.10;;;25.40;51.30;;;;;;6167914;28;84411;-68
2021/07/05 07:52:46;;;;;;;679.22;244.65;;;25.40;50.80;;;;;;6170321;28;85647;-69
2021/07/05 07:55:46;;;;;;;502.02;165.68;;;25.50;50.90;;;;;;6172621;28;85632;-68
2021/07/05 07:58:47;;;;;;;380.55;120.40;;;25.50;51.10;;;;;;6166372;28;92826;-68
2021/07/05 08:01:47;;;;;;;270.67;91.60;;;25.50;50.70;;;;;;6172128;28;85658;-68
2021/07/05 08:04:48;;;;;;;220.88;72.40;;;25.50;50.30;;;;;;6174629;28;85842;-69
2021/07/05 08:07:48;;;;;;;180.60;58.97;;;25.50;50.40;;;;;;6169057;28;83781;-70
2021/07/05 08:10:49;;;;;;;115.07;42.00;;;25.50;50.60;;;;;;6176050;28;83093;-70
2021/07/05 08:13:49;;;;;;;88.90;34.30;;;25.50;50.20;;;;;;6180118;28;83853;-69
2021/07/05 08:16:50;;;;;;;66.10;25.33;;;25.50;50.50;;;;;;6179447;28;83411;-69
2021/07/05 08:19:51;;;;;;;58.95;23.08;;;25.50;50.90;;;;;;6171469;28;84403;-69
2021/07/05 08:22:51;;;;;;;48.28;19.27;;;25.50;50.50;;;;;;6168469;28;83651;-69
2021/07/05 08:25:52;;;;;;;49.38;20.48;;;25.50;50.40;;;;;;6176125;28;83957;-68
2021/07/05 08:28:52;;;;;;;49.65;20.25;;;25.50;50.90;;;;;;6178966;28;83280;-68
2021/07/05 08:31:53;;;;;;;43.17;17.70;;;25.60;50.80;;;;;;6169132;28;85094;-69
2021/07/05 08:34:53;;;;;;;35.00;14.90;;;25.60;50.80;;;;;;6175855;28;83045;-67
2021/07/05 08:37:55;;;;;;;34.72;14.00;;;25.70;50.70;;;;;;6172384;28;84997;-69
2021/07/05 08:40:56;;;;;;;25.83;11.93;;;25.70;50.60;;;;;;6173425;28;83272;-68
2021/07/05 08:43:56;;;;;;;22.98;10.60;;;25.70;50.40;;;;;;6164153;28;83489;-68
2021/07/05 08:46:57;;;;;;;17.98;8.60;;;25.70;50.30;;;;;;6173413;28;83085;-69
2021/07/05 08:49:57;;;;;;;20.50;9.25;;;25.70;51.00;;;;;;6181870;28;82085;-68
2021/07/05 08:52:58;;;;;;;18.77;9.18;;;25.70;50.50;;;;;;6182163;28;82613;-68
2021/07/05 08:55:58;;;;;;;15.63;8.13;;;25.70;50.30;;;;;;6182099;28;80288;-69
2021/07/05 08:58:59;;;;;;;15.82;8.57;;;25.70;50.00;;;;;;6176923;28;80575;-68
2021/07/05 09:01:59;;;;;;;12.70;7.80;;;25.60;50.10;;;;;;6174665;28;80378;-68
2021/07/05 09:05:00;;;;;;;13.40;7.35;;;25.70;50.00;;;;;;6174682;28;81027;-68
2021/07/05 09:08:04;;;;;;;14.32;7.47;;;25.70;49.70;;;;;;6175423;28;80752;-68
2021/07/05 09:11:04;;;;;;;12.15;6.78;;;25.70;49.40;;;;;;6180854;28;80840;-68
2021/07/05 09:14:05;;;;;;;13.00;7.38;;;25.70;49.80;;;;;;6176967;28;80092;-68
2021/07/05 09:17:05;;;;;;;12.60;7.07;;;25.70;49.70;;;;;;6174388;28;80460;-69
2021/07/05 09:20:06;;;;;;;10.48;6.13;;;25.70;49.30;;;;;;6177224;28;80929;-70
2021/07/05 09:23:06;;;;;;;8.57;6.43;;;25.70;48.90;;;;;;6179805;28;80342;-68
2021/07/05 09:26:07;;;;;;;14.57;7.57;;;25.70;48.80;;;;;;6173417;28;80956;-69
2021/07/05 09:29:08;;;;;;;11.50;6.75;;;25.70;48.30;;;;;;6177619;28;80623;-68
2021/07/05 09:32:08;;;;;;;8.70;5.97;;;25.70;48.40;;;;;;6172377;28;82550;-68
2021/07/05 09:35:09;;;;;;;9.00;6.80;;;25.80;48.80;;;;;;6173667;28;81536;-68
2021/07/05 09:38:10;;;;;;;8.52;6.43;;;25.80;48.70;;;;;;6174630;28;82518;-69
2021/07/05 09:41:10;;;;;;;7.50;5.70;;;25.80;47.20;;;;;;6176165;28;80257;-68
2021/07/05 09:44:11;;;;;;;11.02;6.82;;;25.80;46.10;;;;;;6179365;28;81509;-68
2021/07/05 09:47:11;;;;;;;9.20;5.78;;;25.90;47.10;;;;;;6172240;28;80399;-68
2021/07/05 09:50:12;;;;;;;10.23;6.55;;;25.80;46.90;;;;;;6174129;28;81687;-68
2021/07/05 09:53:12;;;;;;;10.10;6.35;;;25.90;47.00;;;;;;6174634;28;80655;-68
2021/07/05 09:56:13;;;;;;;12.15;6.18;;;25.90;48.00;;;;;;6174222;28;80360;-68
2021/07/05 09:59:13;;;;;;;8.70;5.88;;;25.90;48.20;;;;;;6173061;28;80541;-69
2021/07/05 10:02:14;;;;;;;7.85;5.72;;;25.90;47.30;;;;;;6178959;28;80236;-69
2021/07/05 10:05:14;;;;;;;10.55;6.28;;;25.90;46.70;;;;;;6179775;28;80326;-67
2021/07/05 10:08:15;;;;;;;13.25;5.65;;;26.00;46.40;;;;;;6175591;28;81379;-68
2021/07/05 10:11:15;;;;;;;13.82;5.78;;;26.10;46.30;;;;;;6183747;28;81470;-70
2021/07/05 10:14:16;;;;;;;12.93;7.03;;;26.10;47.40;;;;;;6182563;28;81424;-70
2021/07/05 10:17:17;;;;;;;14.32;6.10;;;26.10;46.90;;;;;;6182518;28;80763;-69
2021/07/05 10:20:17;;;;;;;7.82;5.70;;;26.10;46.10;;;;;;6181586;28;81053;-70
2021/07/05 10:23:18;;;;;;;8.40;6.00;;;26.10;46.80;;;;;;6179905;28;80979;-70
2021/07/05 10:26:18;;;;;;;8.93;5.57;;;26.10;47.10;;;;;;6183920;28;80305;-68
2021/07/05 10:29:19;;;;;;;10.32;6.00;;;26.10;47.10;;;;;;6185332;28;81634;-70
2021/07/05 10:32:19;;;;;;;8.05;5.88;;;26.10;47.60;;;;;;6180353;28;83603;-70
2021/07/05 10:35:20;;;;;;;9.90;6.00;;;26.10;47.70;;;;;;6174949;28;80562;-69
2021/07/05 10:38:20;;;;;;;12.55;5.65;;;26.10;46.90;;;;;;6178131;28;80128;-71
2021/07/05 10:41:22;;;;;;;12.90;6.03;;;26.10;47.60;;;;;;6164938;28;81443;-68
2021/07/05 10:44:22;;;;;;;10.10;6.15;;;26.20;47.30;;;;;;6173305;28;80624;-67
2021/07/05 10:47:23;;;;;;;12.95;5.53;;;26.20;46.70;;;;;;6180414;28;80083;-67
2021/07/05 10:50:23;;;;;;;9.48;6.95;;;26.20;47.10;;;;;;6180883;28;80768;-69
2021/07/05 10:53:24;;;;;;;9.13;6.93;;;26.20;46.60;;;;;;6167705;28;80350;-68
2021/07/05 10:56:25;;;;;;;8.70;6.13;;;26.30;45.10;;;;;;6180843;28;80449;-70
2021/07/05 10:59:26;;;;;;;9.63;6.03;;;26.40;44.10;;;;;;6173864;28;80714;-67
2021/07/05 11:02:27;;;;;;;9.38;6.47;;;26.40;43.70;;;;;;6175133;28;80530;-70
2021/07/05 11:05:27;;;;;;;11.55;7.55;;;26.40;44.70;;;;;;6177491;28;81036;-70
2021/07/05 11:08:31;;;;;;;11.02;5.47;;;26.30;44.50;;;;;;6167323;28;80852;-68
2021/07/05 11:11:32;;;;;;;8.77;5.32;;;26.30;44.90;;;;;;6179649;28;83137;-66
2021/07/05 11:14:35;;;;;;;8.75;5.40;;;26.40;44.50;;;;;;6179024;28;82802;-66
2021/07/05 11:17:37;;;;;;;8.65;5.65;;;26.40;43.00;;;;;;6180971;28;80641;-66
2021/07/05 11:20:37;;;;;;;6.15;5.00;;;26.50;41.50;;;;;;6187042;28;80403;-66
2021/07/05 11:23:38;;;;;;;9.57;5.63;;;26.60;40.50;;;;;;6182189;28;80672;-65
2021/07/05 11:26:38;;;;;;;8.63;5.80;;;26.70;40.10;;;;;;6174618;28;80625;-66
2021/07/05 11:29:39;;;;;;;7.28;5.13;;;26.70;40.80;;;;;;6183651;28;80882;-68
2021/07/05 11:32:39;;;;;;;8.68;5.97;;;26.70;40.80;;;;;;6178948;28;80762;-67
2021/07/05 11:35:40;;;;;;;9.20;5.63;;;26.70;40.70;;;;;;6180065;28;80634;-67
2021/07/05 11:38:42;;;;;;;10.27;6.30;;;26.80;41.10;;;;;;6182445;28;80860;-67
2021/07/05 11:41:43;;;;;;;7.53;6.22;;;26.80;41.00;;;;;;6181436;28;80535;-67
2021/07/05 11:44:43;;;;;;;9.35;6.68;;;26.90;40.50;;;;;;6192346;28;82920;-65
2021/07/05 11:47:44;;;;;;;8.90;5.93;;;26.90;40.40;;;;;;6179292;28;81006;-66
2021/07/05 11:50:45;;;;;;;9.55;6.28;;;26.90;40.60;;;;;;6180238;28;81148;-67
2021/07/05 11:53:45;;;;;;;6.60;5.85;;;26.90;41.00;;;;;;6196116;28;83360;-68
2021/07/05 11:56:46;;;;;;;9.00;6.53;;;26.90;41.30;;;;;;6177398;28;80851;-68
2021/07/05 11:59:54;;;;;;;9.05;5.95;;;26.90;40.90;;;;;;6174506;28;80728;-68
2021/07/05 12:02:55;;;;;;;6.80;5.70;;;27.00;41.20;;;;;;6172001;28;81995;-69
2021/07/05 12:05:55;;;;;;;7.60;5.07;;;27.00;40.80;;;;;;6174420;28;81513;-67
2021/07/05 12:08:56;;;;;;;6.93;5.60;;;27.00;40.80;;;;;;6175383;28;81575;-67
2021/07/05 12:11:56;;;;;;;8.20;5.88;;;27.10;40.60;;;;;;6179259;28;80997;-69
2021/07/05 12:14:57;;;;;;;10.65;5.53;;;27.10;41.10;;;;;;6178091;28;80257;-68
2021/07/05 12:17:57;;;;;;;5.72;5.13;;;27.00;41.60;;;;;;6179232;28;81988;-68
2021/07/05 12:20:58;;;;;;;9.65;5.38;;;26.90;42.20;;;;;;6179287;28;80532;-69
2021/07/05 12:23:59;;;;;;;8.70;5.47;;;26.90;40.60;;;;;;6178130;28;83521;-69
2021/07/05 12:26:59;;;;;;;5.75;4.70;;;27.00;40.60;;;;;;6176696;28;80543;-69
2021/07/05 12:30:04;;;;;;;5.60;5.00;;;27.00;41.20;;;;;;6178262;28;83447;-68
2021/07/05 12:33:04;;;;;;;9.73;5.05;;;27.00;42.00;;;;;;6175993;28;85036;-69
2021/07/05 12:36:05;;;;;;;8.65;4.57;;;26.90;41.60;;;;;;6176401;28;80943;-69
2021/07/05 12:39:06;;;;;;;5.13;4.63;;;26.90;42.40;;;;;;6178708;28;82342;-69
2021/07/05 12:42:06;;;;;;;7.70;5.10;;;26.80;42.10;;;;;;6179114;28;80803;-69
2021/07/05 12:45:07;;;;;;;10.65;6.25;;;26.80;41.80;;;;;;6197950;28;84021;-68
2021/07/05 12:48:08;;;;;;;6.72;5.43;;;26.70;42.60;;;;;;6169533;28;80252;-68
2021/07/05 12:51:09;;;;;;;6.80;5.53;;;26.70;42.00;;;;;;6174487;28;82313;-68
2021/07/05 12:54:10;;;;;;;8.27;5.18;;;26.70;42.60;;;;;;6174296;28;80660;-69
2021/07/05 12:57:11;;;;;;;7.80;5.95;;;26.70;42.40;;;;;;6170194;28;83121;-69
2021/07/05 13:00:12;;;;;;;8.88;5.50;;;26.70;42.70;;;;;;6177941;28;84309;-69
2021/07/05 13:03:12;;;;;;;9.38;5.85;;;26.70;42.90;;;;;;6189312;28;81521;-69
2021/07/05 13:06:13;;;;;;;7.03;5.63;;;26.70;42.60;;;;;;6166989;28;80727;-71
2021/07/05 13:09:15;;;;;;;8.15;5.82;;;26.70;42.60;;;;;;6170360;28;80873;-71
2021/07/05 13:12:16;;;;;;;11.38;5.82;;;26.80;42.40;;;;;;6181948;28;82070;-67
2021/07/05 13:15:17;;;;;;;10.07;5.78;;;26.90;42.20;;;;;;6175175;28;80892;-69
2021/07/05 13:18:17;;;;;;;6.85;5.95;;;26.90;42.90;;;;;;6175716;28;81175;-69
2021/07/05 13:21:18;;;;;;;6.45;5.28;;;26.90;43.10;;;;;;6181794;28;82040;-68
2021/07/05 13:24:18;;;;;;;10.35;5.57;;;26.90;43.40;;;;;;6173194;28;80422;-69
2021/07/05 13:27:19;;;;;;;6.88;5.45;;;26.90;43.70;;;;;;6175259;28;80414;-66
2021/07/05 13:30:19;;;;;;;7.88;5.90;;;26.80;44.20;;;;;;6177972;28;80556;-68
2021/07/05 13:33:20;;;;;;;11.63;6.68;;;26.80;43.80;;;;;;6172741;28;81332;-68
2021/07/05 13:36:20;;;;;;;11.27;6.25;;;26.80;44.00;;;;;;6176120;28;80917;-69
2021/07/05 13:39:21;;;;;;;10.05;6.55;;;26.80;43.80;;;;;;6180515;28;80521;-68
2021/07/05 13:42:21;;;;;;;11.02;6.32;;;26.80;43.70;;;;;;6180975;28;81301;-68
2021/07/05 13:45:22;;;;;;;9.68;6.45;;;26.80;43.60;;;;;;6184197;28;80615;-68
2021/07/05 13:48:23;;;;;;;8.75;5.97;;;26.80;43.40;;;;;;6179875;28;82230;-69
2021/07/05 13:51:23;;;;;;;9.07;6.32;;;26.80;43.30;;;;;;6177890;28;83291;-68
2021/07/05 13:54:24;;;;;;;6.80;5.70;;;26.80;43.70;;;;;;6176494;28;80460;-68
2021/07/05 13:57:24;;;;;;;8.82;5.55;;;26.80;43.60;;;;;;6183267;28;80848;-68
2021/07/05 14:00:25;;;;;;;6.03;5.25;;;26.80;44.00;;;;;;6183422;28;81799;-69
2021/07/05 14:03:25;;;;;;;7.15;6.00;;;26.70;43.90;;;;;;6183093;28;80406;-68
2021/07/05 14:06:26;;;;;;;6.60;5.72;;;26.70;43.80;;;;;;6182698;28;80081;-68
2021/07/05 14:09:26;;;;;;;7.82;5.78;;;26.70;43.80;;;;;;6198952;28;83246;-69
2021/07/05 14:12:27;;;;;;;8.25;5.97;;;26.70;44.40;;;;;;6177917;28;80474;-69
2021/07/05 14:15:27;;;;;;;7.15;6.15;;;26.70;45.00;;;;;;6180782;28;81521;-71
2021/07/05 14:18:28;;;;;;;12.70;6.38;;;26.70;45.20;;;;;;6175363;28;80421;-69
2021/07/05 14:21:30;;;;;;;7.10;5.43;;;26.70;45.10;;;;;;6177608;28;81000;-68
2021/07/05 14:24:30;;;;;;;14.63;6.88;;;26.70;45.70;;;;;;6179192;28;82054;-69
2021/07/05 14:27:31;;;;;;;8.27;6.22;;;26.60;45.50;;;;;;6180868;28;80288;-70
2021/07/05 14:30:31;;;;;;;8.77;6.68;;;26.60;44.90;;;;;;6179352;28;81036;-70
2021/07/05 14:33:32;;;;;;;10.13;6.50;;;26.70;44.40;;;;;;6183768;28;86981;-69
2021/07/05 14:36:33;;;;;;;8.18;5.80;;;26.60;45.70;;;;;;6177573;28;80470;-69
2021/07/05 14:39:33;;;;;;;12.40;6.20;;;26.70;45.60;;;;;;6179772;28;80917;-69
2021/07/05 14:42:34;;;;;;;9.32;6.97;;;26.60;45.40;;;;;;6178976;28;83142;-69
2021/07/05 14:45:35;;;;;;;8.25;6.72;;;26.60;45.60;;;;;;6166753;28;80868;-69
2021/07/05 14:48:35;;;;;;;10.35;6.43;;;26.60;45.70;;;;;;6166962;28;81624;-68
2021/07/05 14:51:36;;;;;;;11.02;6.50;;;26.60;45.80;;;;;;6166940;28;81746;-68
2021/07/05 14:54:36;;;;;;;10.80;6.22;;;26.60;45.80;;;;;;6174664;28;80339;-68
2021/07/05 14:57:37;;;;;;;7.70;6.65;;;26.70;45.70;;;;;;6182742;28;80342;-66
2021/07/05 15:00:37;;;;;;;9.25;6.93;;;26.60;44.60;;;;;;6182445;28;80883;-68
2021/07/05 15:03:38;;;;;;;10.48;7.00;;;26.70;44.60;;;;;;6181557;28;81280;-67
2021/07/05 15:06:39;;;;;;;8.18;6.70;;;26.60;44.60;;;;;;6181541;28;81060;-67
2021/07/05 15:09:39;;;;;;;9.38;6.88;;;26.60;44.60;;;;;;6179171;28;81543;-66
2021/07/05 15:12:40;;;;;;;9.05;6.47;;;26.60;45.00;;;;;;6175759;28;80397;-67
2021/07/05 15:15:41;;;;;;;7.28;6.55;;;26.70;45.60;;;;;;6183262;28;80688;-67
2021/07/05 15:18:41;;;;;;;7.25;6.10;;;26.60;45.60;;;;;;6172929;28;80867;-67
2021/07/05 15:21:42;;;;;;;9.70;6.82;;;26.60;46.10;;;;;;6189354;28;82996;-68
2021/07/05 15:24:43;;;;;;;9.30;6.18;;;26.60;45.60;;;;;;6175819;28;81487;-67
2021/07/05 15:27:43;;;;;;;10.07;6.13;;;26.50;46.20;;;;;;6173564;28;81888;-69
2021/07/05 15:30:44;;;;;;;7.13;5.85;;;26.50;46.30;;;;;;6181699;28;80654;-66
2021/07/05 15:33:44;;;;;;;9.88;6.43;;;26.60;46.50;;;;;;6174829;28;81069;-67